Olympia, WA

11:22 AM PDT on May 22, 2017 (GMT -0700)
Ward Lake | | Change Station

Elev 161 ft 47.01 °N, 122.87 °W | Updated 13 seconds ago

Clear
Clear
69.2 °F
Feels Like 69.2 °F
N
0.0
Wind Variable Wind from NE
Gusts 0.0 mph

Today
High -- | Low -- °F
--% Chance of Precip.
Yesterday
High -- | Low -- °F
Precip. -- in
Pressure 30.15 in
Visibility 10.0 miles
Clouds Clear
Dew Point 56 °F
Humidity 62%
Rainfall 0.00 in
Snow Depth Not available.
5:28 AM 8:49 PM
Waning Crescent, 13% visible
METAR KOLM 221754Z 02012KT 10SM CLR 22/12 A3015 RMK AO2 SLP209 T02220117 10222 20089 58005
Pressure 30.15 in
Visibility 10.0 miles
Clouds Clear
Dew Point 56 °F
Humidity 62%
Rainfall 0.00 in
Snow Depth Not available.
5:28 AM 8:49 PM
Waning Crescent, 13% visible
METAR KOLM 221754Z 02012KT 10SM CLR 22/12 A3015 RMK AO2 SLP209 T02220117 10222 20089 58005

Get Severe Weather Alerts

Thanks for signing up!

Be on the lookout for a verification email in your inbox.

You'll start receiving the daily forecast at 8 AM.

×

10-Day Weather Forecast

Almanac

Astronomy

May. 22, 2017 Rise Set
Actual Time
Civil Twilight
Nautical Twilight
Astronomical Twilight
Moon
Length of Visible Light
Length of Day
Tomorrow will be .
, % of the Moon is Illuminated

Today's Extremes

State Highs State Lows

Community

WunderPhotos

Category 6

Welcome to Category 6. This is the collective home for Weather Underground's featured writeups by Dr. Jeff Masters (right), Bob Henson (left), Chris Burt, and other regular contributors.

Nearby

Air Quality

  Air Quality AQ Index Pollutant
Not available.

Snow Depth

Station Depth Elevation

Earthquake Activity

City Distance Mag. Time & Date
Minimum magnitude displayed is 2.5.

Coastal Water Temperatures

Place Temperature

Stations

Nearby Weather Stations

Station Location Temp. Windchill Dew Point Humidity Wind Precip. Elev Updated Type
                   

Watches & Warnings

There are currently no watches in effect.